createdAt,value
2023-01-12T00:02:01.495Z,100931.16
2023-01-12T00:04:30.879Z,100935.56
2023-01-12T00:07:02.069Z,100918.69
2023-01-12T00:09:29.081Z,100924.63
2023-01-12T00:11:56.093Z,100925.63
2023-01-12T00:14:23.106Z,100879.94
2023-01-12T00:16:50.199Z,100889.84
2023-01-12T00:19:22.740Z,100885.00
2023-01-12T00:21:59.607Z,100886.25
2023-01-12T00:24:31.774Z,100881.59
2023-01-12T00:27:01.173Z,100875.47
2023-01-12T00:29:28.737Z,100874.25
2023-01-12T00:31:57.745Z,100860.94
2023-01-12T00:34:29.572Z,100869.75
2023-01-12T00:36:57.457Z,100867.47
2023-01-12T00:39:24.757Z,100859.47
2023-01-12T00:42:09.989Z,100865.75
2023-01-12T00:44:55.661Z,100861.16
2023-01-12T00:47:22.653Z,100877.91
2023-01-12T00:49:50.100Z,100859.03
2023-01-12T00:52:31.630Z,100855.16
2023-01-12T00:54:59.968Z,100873.25
2023-01-12T00:57:28.396Z,100873.28
2023-01-12T00:59:58.159Z,100862.09
2023-01-12T01:02:26.317Z,100853.78
2023-01-12T01:04:53.359Z,100862.44
2023-01-12T01:07:21.733Z,100867.16
2023-01-12T01:09:49.409Z,100848.47
2023-01-12T01:12:16.741Z,100859.47
2023-01-12T01:14:43.702Z,100862.88
2023-01-12T01:17:10.684Z,100858.75
2023-01-12T01:19:37.677Z,100847.88
2023-01-12T01:22:04.711Z,100834.50
2023-01-12T01:24:31.692Z,100828.22
2023-01-12T01:26:58.620Z,100831.94
2023-01-12T01:29:25.572Z,100821.72
2023-01-12T01:31:55.802Z,100820.41
2023-01-12T01:34:26.356Z,100822.06
2023-01-12T01:36:53.382Z,100816.97
2023-01-12T01:39:20.341Z,100811.59
2023-01-12T01:41:48.201Z,100793.34
2023-01-12T01:44:30.472Z,100796.25
2023-01-12T01:47:08.719Z,100810.69
2023-01-12T01:49:50.011Z,100790.84
2023-01-12T01:52:29.761Z,100787.56
2023-01-12T01:55:16.489Z,100785.28
2023-01-12T01:57:52.699Z,100787.91
2023-01-12T02:00:20.134Z,100778.72
2023-01-12T02:02:51.444Z,100783.94
2023-01-12T02:05:23.384Z,100777.28
2023-01-12T02:07:52.117Z,100773.69
2023-01-12T02:10:20.973Z,100769.66
2023-01-12T02:13:06.706Z,100759.84
2023-01-12T02:16:20.379Z,100742.44
2023-01-12T02:19:24.224Z,100750.59
2023-01-12T02:22:18.346Z,100752.47
2023-01-12T02:24:47.847Z,100737.19
2023-01-12T02:28:00.765Z,100712.88
2023-01-12T02:31:19.834Z,100716.41
2023-01-12T02:33:59.072Z,100700.59
2023-01-12T02:36:38.232Z,100696.94
2023-01-12T02:39:33.619Z,100679.22
2023-01-12T02:42:28.903Z,100671.75
2023-01-12T02:45:26.165Z,100652.66
2023-01-12T02:48:16.666Z,100646.69
2023-01-12T02:51:27.137Z,100637.94
2023-01-12T02:54:01.486Z,100626.53
2023-01-12T02:56:37.391Z,100616.69
2023-01-12T02:59:28.898Z,100601.63
2023-01-12T03:02:14.993Z,100584.38
2023-01-12T03:04:42.422Z,100600.56
2023-01-12T03:07:31.224Z,100577.03
2023-01-12T03:10:37.550Z,100577.03
2023-01-12T03:13:11.136Z,100566.66
2023-01-12T03:15:43.852Z,100557.97
2023-01-12T03:18:19.945Z,100555.63
2023-01-12T03:21:27.004Z,100545.06
2023-01-12T03:24:10.683Z,100572.94
2023-01-12T03:26:52.092Z,100551.28
2023-01-12T03:29:27.367Z,100557.78
2023-01-12T03:31:55.838Z,100555.34
2023-01-12T03:34:23.683Z,100566.34
2023-01-12T03:37:12.912Z,100553.16
2023-01-12T03:39:45.777Z,100542.25
2023-01-12T03:42:46.782Z,100545.63
2023-01-12T03:45:42.901Z,100545.22
2023-01-12T03:48:23.458Z,100524.28
2023-01-12T03:51:24.022Z,100528.16
2023-01-12T03:53:52.564Z,100540.31
2023-01-12T03:56:24.026Z,100527.78
2023-01-12T03:58:51.618Z,100530.97
2023-01-12T04:01:19.049Z,100524.34
2023-01-12T04:03:46.293Z,100516.88
2023-01-12T04:06:13.399Z,100505.88
2023-01-12T04:08:40.485Z,100507.72
2023-01-12T04:11:26.897Z,100509.06
2023-01-12T04:13:53.986Z,100489.34
2023-01-12T04:16:21.087Z,100516.75
2023-01-12T04:18:48.296Z,100482.97
2023-01-12T04:21:33.658Z,100485.41
2023-01-12T04:24:00.742Z,100510.09
2023-01-12T04:26:27.847Z,100504.72
2023-01-12T04:28:54.866Z,100514.78
2023-01-12T04:31:21.903Z,100504.34
2023-01-12T04:33:49.100Z,100511.56
2023-01-12T04:36:16.032Z,100490.19
2023-01-12T04:38:43.129Z,100495.50
2023-01-12T04:41:12.958Z,100487.09
2023-01-12T04:44:00.118Z,100494.94
2023-01-12T04:46:27.181Z,100494.84
2023-01-12T04:48:54.115Z,100496.28
2023-01-12T04:51:21.179Z,100480.47
2023-01-12T04:53:48.353Z,100502.88
2023-01-12T04:56:15.367Z,100495.00
2023-01-12T04:58:42.444Z,100495.94
2023-01-12T05:01:21.019Z,100498.28
2023-01-12T05:03:48.095Z,100487.00
2023-01-12T05:06:18.141Z,100490.88
2023-01-12T05:09:03.438Z,100483.19
2023-01-12T05:11:30.843Z,100495.84
2023-01-12T05:13:58.171Z,100482.44
2023-01-12T05:16:25.950Z,100484.00
2023-01-12T05:18:54.626Z,100486.31
2023-01-12T05:21:23.323Z,100510.53
2023-01-12T05:23:52.431Z,100502.88
2023-01-12T05:26:19.952Z,100486.13
2023-01-12T05:28:51.272Z,100495.09
2023-01-12T05:31:19.691Z,100486.38
2023-01-12T05:33:47.840Z,100483.38
2023-01-12T05:36:17.051Z,100488.69
2023-01-12T05:38:44.298Z,100496.47
2023-01-12T05:41:14.523Z,100487.72
2023-01-12T05:43:52.048Z,100482.38
2023-01-12T05:46:26.770Z,100482.72
2023-01-12T05:48:55.860Z,100483.44
2023-01-12T05:51:25.686Z,100463.13
2023-01-12T05:53:52.837Z,100463.78
2023-01-12T05:56:26.373Z,100480.72
2023-01-12T05:58:59.154Z,100463.00
2023-01-12T06:01:28.024Z,100465.72
2023-01-12T06:03:57.630Z,100462.63
2023-01-12T06:06:27.887Z,100481.56
2023-01-12T06:08:55.115Z,100470.41
2023-01-12T06:11:41.007Z,100472.84
2023-01-12T06:14:09.940Z,100464.72
2023-01-12T06:16:42.859Z,100481.25
2023-01-12T06:19:13.042Z,100484.75
2023-01-12T06:21:40.630Z,100489.00
2023-01-12T06:24:08.503Z,100482.38
2023-01-12T06:26:35.607Z,100490.38
2023-01-12T06:29:05.485Z,100493.09
2023-01-12T06:31:33.269Z,100498.09
2023-01-12T06:34:00.295Z,100499.31
2023-01-12T06:36:27.285Z,100500.38
2023-01-12T06:38:54.225Z,100492.53
2023-01-12T06:41:40.266Z,100506.47
2023-01-12T06:44:07.233Z,100510.81
2023-01-12T06:46:34.245Z,100511.28
2023-01-12T06:49:01.280Z,100495.25
2023-01-12T06:51:28.428Z,100508.00
2023-01-12T06:53:55.766Z,100505.66
2023-01-12T06:56:23.186Z,100505.25
2023-01-12T06:58:50.365Z,100496.88
2023-01-12T07:01:20.683Z,100503.28
2023-01-12T07:03:47.666Z,100503.13
2023-01-12T07:06:14.648Z,100495.53
2023-01-12T07:08:42.878Z,100502.31
2023-01-12T07:11:12.717Z,100503.28
2023-01-12T07:13:39.851Z,100500.84
2023-01-12T07:16:07.549Z,100500.06
2023-01-12T07:18:34.652Z,100512.50
2023-01-12T07:21:06.110Z,100507.81
2023-01-12T07:23:33.252Z,100512.47
2023-01-12T07:26:00.166Z,100505.66
2023-01-12T07:28:27.392Z,100514.50
2023-01-12T07:31:01.446Z,100506.81
2023-01-12T07:33:28.598Z,100514.03
2023-01-12T07:36:02.121Z,100520.03
2023-01-12T07:38:30.985Z,100510.91
2023-01-12T07:41:03.079Z,100522.38
2023-01-12T07:43:32.335Z,100501.34
2023-01-12T07:46:00.065Z,100521.69
2023-01-12T07:48:27.601Z,100522.78
2023-01-12T07:50:54.972Z,100529.22
2023-01-12T07:53:22.147Z,100531.00
2023-01-12T07:55:49.179Z,100523.53
2023-01-12T07:58:16.200Z,100544.47
2023-01-12T08:00:43.218Z,100543.53
2023-01-12T08:03:14.132Z,100535.34
2023-01-12T08:05:41.527Z,100540.25
2023-01-12T08:08:08.605Z,100543.31
2023-01-12T08:10:37.634Z,100541.84
2023-01-12T08:13:04.586Z,100561.28
2023-01-12T08:15:37.622Z,100556.00
2023-01-12T08:18:14.137Z,100556.16
2023-01-12T08:20:41.270Z,100561.81
2023-01-12T08:23:21.903Z,100549.34
2023-01-12T08:25:56.548Z,100551.19
2023-01-12T08:28:43.648Z,100552.03
2023-01-12T08:31:14.000Z,100561.63
2023-01-12T08:33:43.470Z,100564.53
2023-01-12T08:38:45.724Z,100574.75
2023-01-12T08:41:30.847Z,100557.13
2023-01-12T08:44:05.166Z,100571.63
2023-01-12T08:46:39.571Z,100564.63
2023-01-12T08:49:11.548Z,100570.53
2023-01-12T08:51:44.353Z,100570.59
2023-01-12T08:54:14.786Z,100567.28
2023-01-12T08:56:41.973Z,100560.75
2023-01-12T08:59:09.160Z,100561.81
2023-01-12T09:01:37.434Z,100563.31
2023-01-12T09:04:05.490Z,100591.06
2023-01-12T09:06:38.276Z,100571.84
2023-01-12T09:09:10.007Z,100589.16
2023-01-12T09:11:39.116Z,100579.84
2023-01-12T09:14:06.487Z,100589.84
2023-01-12T09:16:34.432Z,100587.50
2023-01-12T09:19:01.712Z,100571.53
2023-01-12T09:21:30.767Z,100585.63
2023-01-12T09:23:58.480Z,100590.41
2023-01-12T09:26:32.180Z,100600.59
2023-01-12T09:29:04.383Z,100598.47
2023-01-12T09:31:32.849Z,100602.44
2023-01-12T09:34:00.603Z,100599.56
2023-01-12T09:36:33.799Z,100602.59
2023-01-12T09:39:04.402Z,100603.97
2023-01-12T09:41:54.579Z,100596.75
2023-01-12T09:44:54.286Z,100600.09
2023-01-12T09:47:50.707Z,100603.91
2023-01-12T09:50:32.537Z,100595.00
2023-01-12T09:53:12.756Z,100610.13
2023-01-12T09:55:59.214Z,100606.56
2023-01-12T09:58:48.944Z,100617.25
2023-01-12T10:01:28.662Z,100611.97
2023-01-12T10:03:58.672Z,100609.91
2023-01-12T10:06:25.729Z,100616.38
2023-01-12T10:09:01.152Z,100618.81
2023-01-12T10:11:52.710Z,100618.59
2023-01-12T10:15:03.332Z,100620.38
2023-01-12T10:17:38.786Z,100616.81
2023-01-12T10:20:16.867Z,100607.06
2023-01-12T10:22:56.029Z,100627.16
2023-01-12T10:25:44.603Z,100625.22
2023-01-12T10:28:33.243Z,100614.97
2023-01-12T10:31:01.302Z,100618.56
2023-01-12T10:33:31.738Z,100619.25
2023-01-12T10:36:17.192Z,100612.53
2023-01-12T10:39:03.428Z,100617.44
2023-01-12T10:41:39.960Z,100623.72
2023-01-12T10:44:15.874Z,100625.38
2023-01-12T10:46:43.050Z,100624.00
2023-01-12T10:49:20.887Z,100628.28
2023-01-12T10:52:00.995Z,100625.06
2023-01-12T10:54:34.267Z,100619.97
2023-01-12T10:57:22.439Z,100627.38
2023-01-12T11:00:02.638Z,100604.66
2023-01-12T11:02:44.231Z,100620.94
2023-01-12T11:05:38.412Z,100622.59
2023-01-12T11:08:28.331Z,100621.63
2023-01-12T11:10:55.297Z,100609.28
2023-01-12T11:13:36.596Z,100601.63
2023-01-12T11:16:33.839Z,100607.56
2023-01-12T11:19:22.730Z,100611.16
2023-01-12T11:22:02.602Z,100601.19
2023-01-12T11:25:03.457Z,100596.91
2023-01-12T11:27:54.792Z,100602.38
2023-01-12T11:30:44.289Z,100600.84
2023-01-12T11:33:21.948Z,100587.09
2023-01-12T11:36:00.432Z,100585.97
2023-01-12T11:39:07.272Z,100578.25
2023-01-12T11:42:19.623Z,100591.31
2023-01-12T11:45:06.272Z,100584.19
2023-01-12T11:47:56.667Z,100570.69
2023-01-12T11:50:29.468Z,100567.97
2023-01-12T11:52:58.053Z,100564.00
2023-01-12T11:55:50.483Z,100573.44
2023-01-12T11:58:34.864Z,100569.50
2023-01-12T12:01:35.920Z,100572.28
2023-01-12T12:04:42.146Z,100559.91
2023-01-12T12:07:41.715Z,100553.47
2023-01-12T12:10:39.169Z,100564.34
2023-01-12T12:13:39.946Z,100555.59
2023-01-12T12:16:22.337Z,100549.44
2023-01-12T12:19:18.725Z,100546.44
2023-01-12T12:22:02.046Z,100542.53
2023-01-12T12:24:37.909Z,100547.13
2023-01-12T12:27:19.994Z,100539.50
2023-01-12T12:30:11.791Z,100522.53
2023-01-12T12:33:00.420Z,100517.84
2023-01-12T12:35:53.124Z,100523.13
2023-01-12T12:38:55.929Z,100509.31
2023-01-12T12:42:04.865Z,100514.72
2023-01-12T12:45:17.917Z,100497.91
2023-01-12T12:47:55.867Z,100506.50
2023-01-12T12:50:39.827Z,100499.38
2023-01-12T12:53:12.783Z,100506.47
2023-01-12T12:55:40.450Z,100501.72
2023-01-12T12:58:29.920Z,100495.53
2023-01-12T13:01:19.838Z,100484.88
2023-01-12T13:04:06.946Z,100480.41
2023-01-12T13:06:50.256Z,100482.47
2023-01-12T13:09:17.212Z,100481.56
2023-01-12T13:11:55.558Z,100473.50
2023-01-12T13:14:37.729Z,100478.69
2023-01-12T13:17:20.146Z,100482.06
2023-01-12T13:20:08.370Z,100470.19
2023-01-12T13:22:45.393Z,100467.69
2023-01-12T13:25:19.524Z,100462.50
2023-01-12T13:28:01.550Z,100451.16
2023-01-12T13:30:31.333Z,100457.53
2023-01-12T13:33:20.325Z,100455.50
2023-01-12T13:35:47.182Z,100462.34
2023-01-12T13:38:34.190Z,100459.75
2023-01-12T13:41:52.746Z,100454.13
2023-01-12T13:44:35.158Z,100437.56
2023-01-12T13:47:09.368Z,100439.88
2023-01-12T13:49:49.575Z,100442.50
2023-01-12T13:52:32.211Z,100440.44
2023-01-12T13:54:59.523Z,100439.97
2023-01-12T13:57:30.406Z,100442.66
2023-01-12T14:00:22.049Z,100442.75
2023-01-12T14:02:49.182Z,100449.50
2023-01-12T14:05:26.422Z,100438.56
2023-01-12T14:08:39.587Z,100450.16
2023-01-12T14:11:43.474Z,100445.31
2023-01-12T14:14:55.957Z,100442.97
2023-01-12T14:17:51.995Z,100438.63
2023-01-12T14:20:27.316Z,100421.97
2023-01-12T14:23:35.258Z,100417.03
2023-01-12T14:26:06.468Z,100419.19
2023-01-12T14:28:34.333Z,100427.59
2023-01-12T14:31:07.530Z,100424.69
2023-01-12T14:33:37.737Z,100418.41
2023-01-12T14:36:12.596Z,100424.88
2023-01-12T14:38:44.266Z,100415.41
2023-01-12T14:41:53.841Z,100411.09
2023-01-12T14:44:44.505Z,100422.22
2023-01-12T14:47:30.497Z,100413.06
2023-01-12T14:50:19.481Z,100422.63
2023-01-12T14:52:48.480Z,100404.44
2023-01-12T14:55:25.357Z,100434.53
2023-01-12T14:57:58.995Z,100401.50
2023-01-12T15:00:32.832Z,100399.16
2023-01-12T15:03:04.830Z,100397.22
2023-01-12T15:05:36.765Z,100399.28
2023-01-12T15:08:31.061Z,100399.53
2023-01-12T15:11:05.372Z,100394.66
2023-01-12T15:13:35.124Z,100389.94
2023-01-12T15:16:22.560Z,100395.81
2023-01-12T15:19:08.175Z,100382.63
2023-01-12T15:21:55.777Z,100389.06
2023-01-12T15:24:50.406Z,100394.09
2023-01-12T15:27:22.585Z,100376.38
2023-01-12T15:29:49.732Z,100385.63
2023-01-12T15:32:46.450Z,100379.59
2023-01-12T15:35:23.577Z,100384.66
2023-01-12T15:37:53.488Z,100381.97
2023-01-12T15:40:21.555Z,100376.81
2023-01-12T15:42:53.056Z,100373.16
2023-01-12T15:45:38.937Z,100380.25
2023-01-12T15:48:06.881Z,100381.63
2023-01-12T15:50:37.398Z,100385.16
2023-01-12T15:53:12.399Z,100386.81
2023-01-12T15:55:40.053Z,100375.91
2023-01-12T15:58:07.547Z,100352.22
2023-01-12T16:00:34.834Z,100348.97
2023-01-12T16:03:01.808Z,100348.16
2023-01-12T16:05:28.882Z,100351.50
2023-01-12T16:07:55.940Z,100355.16
2023-01-12T16:10:23.416Z,100355.06
2023-01-12T16:12:50.507Z,100362.28
2023-01-12T16:15:24.267Z,100361.50
2023-01-12T16:17:51.965Z,100362.19
2023-01-12T16:20:20.411Z,100366.91
2023-01-12T16:22:48.367Z,100371.16
2023-01-12T16:25:16.334Z,100365.97
2023-01-12T16:27:43.503Z,100364.66
2023-01-12T16:30:14.927Z,100361.72
2023-01-12T16:32:46.478Z,100366.13
2023-01-12T16:35:15.659Z,100358.56
2023-01-12T16:37:43.394Z,100354.28
2023-01-12T16:40:11.573Z,100361.66
2023-01-12T16:42:38.571Z,100360.47
2023-01-12T16:45:06.388Z,100357.44
2023-01-12T16:47:33.588Z,100355.97
2023-01-12T16:50:00.768Z,100354.72
2023-01-12T16:52:27.825Z,100368.19
2023-01-12T16:54:54.749Z,100364.09
2023-01-12T16:57:21.786Z,100355.22
2023-01-12T16:59:49.715Z,100363.47
2023-01-12T17:02:18.679Z,100360.66
2023-01-12T17:04:47.937Z,100373.59
2023-01-12T17:07:15.099Z,100363.97
2023-01-12T17:09:42.571Z,100369.06
2023-01-12T17:12:10.005Z,100370.06
2023-01-12T17:14:37.150Z,100372.25
2023-01-12T17:17:08.649Z,100373.78
2023-01-12T17:19:38.438Z,100382.75
2023-01-12T17:22:07.835Z,100366.69
2023-01-12T17:24:39.677Z,100376.59
2023-01-12T17:27:07.701Z,100371.09
2023-01-12T17:29:34.783Z,100349.44
2023-01-12T17:32:06.964Z,100364.44
2023-01-12T17:34:39.032Z,100361.13
2023-01-12T17:37:09.775Z,100357.47
2023-01-12T17:39:45.108Z,100348.22
2023-01-12T17:42:36.431Z,100344.72
2023-01-12T17:45:04.444Z,100360.50
2023-01-12T17:47:31.697Z,100359.44
2023-01-12T17:49:58.818Z,100362.81
2023-01-12T17:52:26.288Z,100364.53
2023-01-12T17:54:53.648Z,100357.88
2023-01-12T17:57:20.935Z,100363.34
2023-01-12T17:59:49.987Z,100371.97
2023-01-12T18:02:18.180Z,100371.03
2023-01-12T18:04:46.693Z,100365.69
2023-01-12T18:07:13.692Z,100362.88
2023-01-12T18:09:42.014Z,100368.91
2023-01-12T18:12:10.499Z,100362.72
2023-01-12T18:14:37.700Z,100369.13
2023-01-12T18:17:04.725Z,100370.56
2023-01-12T18:19:31.793Z,100361.19
2023-01-12T18:21:58.832Z,100368.34
2023-01-12T18:24:25.899Z,100363.75
2023-01-12T18:26:52.830Z,100364.22
2023-01-12T18:29:19.775Z,100357.03
2023-01-12T18:31:47.377Z,100366.13
2023-01-12T18:34:16.652Z,100349.69
2023-01-12T18:36:43.894Z,100355.84
2023-01-12T18:39:23.369Z,100358.63
2023-01-12T18:42:09.429Z,100364.75
2023-01-12T18:44:40.095Z,100345.94
2023-01-12T18:47:25.958Z,100355.28
2023-01-12T18:49:57.535Z,100350.72
2023-01-12T18:52:43.330Z,100350.50
2023-01-12T18:55:10.293Z,100353.47
2023-01-12T18:57:37.231Z,100362.72
2023-01-12T19:00:16.316Z,100351.84
2023-01-12T19:02:44.070Z,100353.38
2023-01-12T19:05:23.304Z,100361.19
2023-01-12T19:08:03.872Z,100351.94
2023-01-12T19:10:33.684Z,100348.72
2023-01-12T19:13:19.278Z,100346.34
2023-01-12T19:16:05.152Z,100332.94
2023-01-12T19:18:35.819Z,100336.59
2023-01-12T19:21:27.649Z,100344.16
2023-01-12T19:24:13.262Z,100345.09
2023-01-12T19:26:58.875Z,100341.63
2023-01-12T19:29:25.791Z,100346.00
2023-01-12T19:31:52.745Z,100350.53
2023-01-12T19:34:19.745Z,100346.44
2023-01-12T19:36:46.776Z,100338.44
2023-01-12T19:39:13.758Z,100346.66
2023-01-12T19:41:58.905Z,100332.22
2023-01-12T19:44:25.876Z,100333.50
2023-01-12T19:46:52.874Z,100335.69
2023-01-12T19:49:19.839Z,100332.31
2023-01-12T19:51:47.305Z,100328.97
2023-01-12T19:54:14.311Z,100334.06
2023-01-12T19:56:41.307Z,100337.16
2023-01-12T19:59:08.347Z,100328.59
2023-01-12T20:01:35.571Z,100329.69
2023-01-12T20:04:03.263Z,100333.69
2023-01-12T20:06:30.384Z,100338.09
2023-01-12T20:08:57.447Z,100323.00
2023-01-12T20:11:24.401Z,100317.63
2023-01-12T20:13:51.463Z,100330.53
2023-01-12T20:16:18.475Z,100323.63
2023-01-12T20:18:45.543Z,100328.72
2023-01-12T20:21:13.373Z,100330.53
2023-01-12T20:23:40.359Z,100329.72
2023-01-12T20:26:11.411Z,100331.59
2023-01-12T20:28:39.795Z,100337.66
2023-01-12T20:31:12.724Z,100339.19
2023-01-12T20:33:40.585Z,100341.56
2023-01-12T20:36:17.146Z,100329.25
2023-01-12T20:38:46.826Z,100336.31
2023-01-12T20:41:14.001Z,100343.09
2023-01-12T20:43:40.978Z,100340.28
2023-01-12T20:46:12.794Z,100352.78
2023-01-12T20:48:44.790Z,100352.31
2023-01-12T20:51:15.320Z,100365.09
2023-01-12T20:53:42.945Z,100360.66
2023-01-12T20:56:10.856Z,100377.38
2023-01-12T20:58:37.917Z,100341.44
2023-01-12T21:01:13.472Z,100367.88
2023-01-12T21:03:41.111Z,100340.31
2023-01-12T21:06:13.382Z,100354.53
2023-01-12T21:08:44.755Z,100370.16
2023-01-12T21:11:15.619Z,100363.88
2023-01-12T21:13:43.109Z,100361.09
2023-01-12T21:16:14.846Z,100356.84
2023-01-12T21:18:42.122Z,100373.03
2023-01-12T21:21:10.455Z,100383.25
2023-01-12T21:23:37.582Z,100379.34
2023-01-12T21:26:07.755Z,100377.50
2023-01-12T21:28:38.244Z,100383.16
2023-01-12T21:31:08.565Z,100373.75
2023-01-12T21:33:35.746Z,100378.50
2023-01-12T21:36:03.572Z,100371.41
2023-01-12T21:38:31.220Z,100369.34
2023-01-12T21:41:04.201Z,100380.88
2023-01-12T21:43:32.193Z,100386.50
2023-01-12T21:46:07.126Z,100394.28
2023-01-12T21:48:34.408Z,100407.53
2023-01-12T21:51:07.409Z,100406.13
2023-01-12T21:53:35.271Z,100397.44
2023-01-12T21:56:04.804Z,100391.91
2023-01-12T21:58:34.563Z,100384.81
2023-01-12T22:01:15.658Z,100390.25
2023-01-12T22:03:42.906Z,100396.28
2023-01-12T22:06:12.686Z,100392.78
2023-01-12T22:08:41.820Z,100386.78
2023-01-12T22:11:12.207Z,100395.13
2023-01-12T22:13:39.578Z,100404.63
2023-01-12T22:16:10.239Z,100412.28
2023-01-12T22:18:38.855Z,100397.13
2023-01-12T22:21:10.159Z,100406.22
2023-01-12T22:23:38.275Z,100406.53
2023-01-12T22:26:09.461Z,100410.03
2023-01-12T22:28:39.580Z,100428.38
2023-01-12T22:31:22.964Z,100420.03
2023-01-12T22:34:03.891Z,100421.41
2023-01-12T22:36:35.073Z,100411.81
2023-01-12T22:39:02.505Z,100409.47
2023-01-12T22:41:29.478Z,100405.31
2023-01-12T22:43:56.439Z,100413.94
2023-01-12T22:46:27.873Z,100397.75
2023-01-12T22:48:57.306Z,100402.56
2023-01-12T22:51:26.661Z,100413.81
2023-01-12T22:53:55.520Z,100425.28
2023-01-12T22:56:23.064Z,100403.78
2023-01-12T22:58:53.109Z,100415.97
2023-01-12T23:01:21.950Z,100414.59
2023-01-12T23:03:54.233Z,100413.41
2023-01-12T23:06:25.130Z,100419.00
2023-01-12T23:08:52.810Z,100399.19
2023-01-12T23:11:23.601Z,100395.91
2023-01-12T23:13:51.699Z,100400.34
2023-01-12T23:16:19.589Z,100396.16
2023-01-12T23:18:48.162Z,100405.31
2023-01-12T23:21:27.167Z,100404.97
2023-01-12T23:23:59.482Z,100414.50
2023-01-12T23:26:31.651Z,100415.97
2023-01-12T23:29:00.829Z,100412.38
2023-01-12T23:31:31.054Z,100404.25
2023-01-12T23:33:58.100Z,100412.84
2023-01-12T23:36:27.936Z,100413.22
2023-01-12T23:38:57.992Z,100416.56
2023-01-12T23:41:27.919Z,100411.81
2023-01-12T23:43:59.325Z,100413.06
2023-01-12T23:46:29.068Z,100414.94
2023-01-12T23:48:57.852Z,100412.25
2023-01-12T23:51:27.442Z,100407.47
2023-01-12T23:54:00.679Z,100416.69
2023-01-12T23:56:32.884Z,100413.22
2023-01-12T23:58:59.846Z,100417.44
